sensor_id;sensor_type;location;lat;lon;timestamp;temperature;humidity
24262;DHT22;12385;51.412;5.540;2022-08-21T00:01:57;16.40;99.90
24262;DHT22;12385;51.412;5.540;2022-08-21T00:04:23;16.30;99.90
24262;DHT22;12385;51.412;5.540;2022-08-21T00:06:52;16.30;99.90
24262;DHT22;12385;51.412;5.540;2022-08-21T00:09:19;16.30;99.90
24262;DHT22;12385;51.412;5.540;2022-08-21T00:11:45;16.30;99.90
24262;DHT22;12385;51.412;5.540;2022-08-21T00:14:11;16.20;99.90
24262;DHT22;12385;51.412;5.540;2022-08-21T00:16:36;16.20;99.90
24262;DHT22;12385;51.412;5.540;2022-08-21T00:19:04;16.20;99.90
24262;DHT22;12385;51.412;5.540;2022-08-21T00:21:30;16.20;99.90
24262;DHT22;12385;51.412;5.540;2022-08-21T00:23:56;16.20;99.90
24262;DHT22;12385;51.412;5.540;2022-08-21T00:26:22;16.10;99.90
24262;DHT22;12385;51.412;5.540;2022-08-21T00:28:47;16.10;99.90
24262;DHT22;12385;51.412;5.540;2022-08-21T00:31:14;16.00;99.90
24262;DHT22;12385;51.412;5.540;2022-08-21T00:33:41;16.00;99.90
24262;DHT22;12385;51.412;5.540;2022-08-21T00:36:07;16.00;99.90
24262;DHT22;12385;51.412;5.540;2022-08-21T00:38:33;16.00;99.90
24262;DHT22;12385;51.412;5.540;2022-08-21T00:41:01;16.00;99.90
24262;DHT22;12385;51.412;5.540;2022-08-21T00:43:31;15.90;99.90
24262;DHT22;12385;51.412;5.540;2022-08-21T00:45:57;15.90;99.90
24262;DHT22;12385;51.412;5.540;2022-08-21T00:48:23;15.90;99.90
24262;DHT22;12385;51.412;5.540;2022-08-21T00:50:54;15.80;99.90
24262;DHT22;12385;51.412;5.540;2022-08-21T00:53:21;15.80;99.90
24262;DHT22;12385;51.412;5.540;2022-08-21T00:55:47;15.80;99.90
24262;DHT22;12385;51.412;5.540;2022-08-21T00:58:14;15.70;99.90
24262;DHT22;12385;51.412;5.540;2022-08-21T01:00:43;15.70;99.90
24262;DHT22;12385;51.412;5.540;2022-08-21T01:03:13;15.60;99.90
24262;DHT22;12385;51.412;5.540;2022-08-21T01:05:40;15.50;99.90
24262;DHT22;12385;51.412;5.540;2022-08-21T01:08:07;15.40;99.90
24262;DHT22;12385;51.412;5.540;2022-08-21T01:10:35;15.30;99.90
24262;DHT22;12385;51.412;5.540;2022-08-21T01:13:01;15.30;99.90
24262;DHT22;12385;51.412;5.540;2022-08-21T01:15:32;15.30;99.90
24262;DHT22;12385;51.412;5.540;2022-08-21T01:17:59;15.30;99.90
24262;DHT22;12385;51.412;5.540;2022-08-21T01:20:25;15.20;99.90
24262;DHT22;12385;51.412;5.540;2022-08-21T01:22:51;15.10;99.90
24262;DHT22;12385;51.412;5.540;2022-08-21T01:25:17;15.10;99.90
24262;DHT22;12385;51.412;5.540;2022-08-21T01:27:45;15.10;99.90
24262;DHT22;12385;51.412;5.540;2022-08-21T01:30:14;15.10;99.90
24262;DHT22;12385;51.412;5.540;2022-08-21T01:32:41;15.10;99.90
24262;DHT22;12385;51.412;5.540;2022-08-21T01:35:08;15.10;99.90
24262;DHT22;12385;51.412;5.540;2022-08-21T01:37:34;15.10;99.90
24262;DHT22;12385;51.412;5.540;2022-08-21T01:40:00;15.10;99.90
24262;DHT22;12385;51.412;5.540;2022-08-21T01:42:26;15.10;99.90
24262;DHT22;12385;51.412;5.540;2022-08-21T01:44:52;15.10;99.90
24262;DHT22;12385;51.412;5.540;2022-08-21T01:47:18;15.10;99.90
24262;DHT22;12385;51.412;5.540;2022-08-21T01:49:44;15.10;99.90
24262;DHT22;12385;51.412;5.540;2022-08-21T01:52:10;15.10;99.90
24262;DHT22;12385;51.412;5.540;2022-08-21T01:54:37;15.10;99.90
24262;DHT22;12385;51.412;5.540;2022-08-21T01:57:03;15.10;99.90
24262;DHT22;12385;51.412;5.540;2022-08-21T01:59:29;15.10;99.90
24262;DHT22;12385;51.412;5.540;2022-08-21T02:01:55;15.10;99.90
24262;DHT22;12385;51.412;5.540;2022-08-21T02:04:21;15.00;99.90
24262;DHT22;12385;51.412;5.540;2022-08-21T02:06:47;15.00;99.90
24262;DHT22;12385;51.412;5.540;2022-08-21T02:09:14;15.00;99.90
24262;DHT22;12385;51.412;5.540;2022-08-21T02:11:40;14.90;99.90
24262;DHT22;12385;51.412;5.540;2022-08-21T02:14:07;14.90;99.90
24262;DHT22;12385;51.412;5.540;2022-08-21T02:16:33;14.90;99.90
24262;DHT22;12385;51.412;5.540;2022-08-21T02:18:59;14.80;99.90
24262;DHT22;12385;51.412;5.540;2022-08-21T02:21:25;14.80;99.90
24262;DHT22;12385;51.412;5.540;2022-08-21T02:23:50;14.80;99.90
24262;DHT22;12385;51.412;5.540;2022-08-21T02:26:16;14.80;99.90
24262;DHT22;12385;51.412;5.540;2022-08-21T02:28:42;14.70;99.90
24262;DHT22;12385;51.412;5.540;2022-08-21T02:31:08;14.70;99.90
24262;DHT22;12385;51.412;5.540;2022-08-21T02:33:33;14.70;99.90
24262;DHT22;12385;51.412;5.540;2022-08-21T02:35:59;14.60;99.90
24262;DHT22;12385;51.412;5.540;2022-08-21T02:38:29;14.50;99.90
24262;DHT22;12385;51.412;5.540;2022-08-21T02:40:55;14.60;99.90
24262;DHT22;12385;51.412;5.540;2022-08-21T02:43:23;14.50;99.90
24262;DHT22;12385;51.412;5.540;2022-08-21T02:45:50;14.50;99.90
24262;DHT22;12385;51.412;5.540;2022-08-21T02:48:18;14.50;99.90
24262;DHT22;12385;51.412;5.540;2022-08-21T02:51:07;14.40;99.90
24262;DHT22;12385;51.412;5.540;2022-08-21T02:53:32;14.40;99.90
24262;DHT22;12385;51.412;5.540;2022-08-21T02:56:01;14.40;99.90
24262;DHT22;12385;51.412;5.540;2022-08-21T02:58:34;14.40;99.90
24262;DHT22;12385;51.412;5.540;2022-08-21T03:01:00;14.30;99.90
24262;DHT22;12385;51.412;5.540;2022-08-21T03:03:27;14.30;99.90
24262;DHT22;12385;51.412;5.540;2022-08-21T03:05:53;14.20;99.90
24262;DHT22;12385;51.412;5.540;2022-08-21T03:08:19;14.20;99.90
24262;DHT22;12385;51.412;5.540;2022-08-21T03:10:48;14.10;99.90
24262;DHT22;12385;51.412;5.540;2022-08-21T03:13:14;14.10;99.90
24262;DHT22;12385;51.412;5.540;2022-08-21T03:15:41;14.10;99.90
24262;DHT22;12385;51.412;5.540;2022-08-21T03:18:07;14.10;99.90
24262;DHT22;12385;51.412;5.540;2022-08-21T03:20:33;14.00;99.90
24262;DHT22;12385;51.412;5.540;2022-08-21T03:23:00;14.00;99.90
24262;DHT22;12385;51.412;5.540;2022-08-21T03:25:27;14.00;99.90
24262;DHT22;12385;51.412;5.540;2022-08-21T03:27:53;14.00;99.90
24262;DHT22;12385;51.412;5.540;2022-08-21T03:30:20;14.00;99.90
24262;DHT22;12385;51.412;5.540;2022-08-21T03:32:49;13.90;99.90
24262;DHT22;12385;51.412;5.540;2022-08-21T03:35:16;13.90;99.90
24262;DHT22;12385;51.412;5.540;2022-08-21T03:37:42;13.90;99.90
24262;DHT22;12385;51.412;5.540;2022-08-21T03:40:09;13.80;99.90
24262;DHT22;12385;51.412;5.540;2022-08-21T03:42:35;13.90;99.90
24262;DHT22;12385;51.412;5.540;2022-08-21T03:45:01;13.90;99.90
24262;DHT22;12385;51.412;5.540;2022-08-21T03:47:27;13.90;99.90
24262;DHT22;12385;51.412;5.540;2022-08-21T03:49:52;13.90;99.90
24262;DHT22;12385;51.412;5.540;2022-08-21T03:52:19;13.90;99.90
24262;DHT22;12385;51.412;5.540;2022-08-21T03:54:45;13.90;99.90
24262;DHT22;12385;51.412;5.540;2022-08-21T03:57:11;13.90;99.90
24262;DHT22;12385;51.412;5.540;2022-08-21T03:59:37;13.90;99.90
24262;DHT22;12385;51.412;5.540;2022-08-21T04:02:05;13.90;99.90
24262;DHT22;12385;51.412;5.540;2022-08-21T04:04:31;13.90;99.90
24262;DHT22;12385;51.412;5.540;2022-08-21T04:06:57;13.90;99.90
24262;DHT22;12385;51.412;5.540;2022-08-21T04:09:24;13.90;99.90
24262;DHT22;12385;51.412;5.540;2022-08-21T04:11:49;13.90;99.90
24262;DHT22;12385;51.412;5.540;2022-08-21T04:14:16;13.90;99.90
24262;DHT22;12385;51.412;5.540;2022-08-21T04:16:42;13.90;99.90
24262;DHT22;12385;51.412;5.540;2022-08-21T04:19:09;13.90;99.90
24262;DHT22;12385;51.412;5.540;2022-08-21T04:21:36;13.90;99.90
24262;DHT22;12385;51.412;5.540;2022-08-21T04:24:03;13.80;99.90
24262;DHT22;12385;51.412;5.540;2022-08-21T04:26:29;13.90;99.90
24262;DHT22;12385;51.412;5.540;2022-08-21T04:28:56;13.90;99.90
24262;DHT22;12385;51.412;5.540;2022-08-21T04:31:23;13.80;99.90
24262;DHT22;12385;51.412;5.540;2022-08-21T04:33:49;13.80;99.90
24262;DHT22;12385;51.412;5.540;2022-08-21T04:36:14;13.80;99.90
24262;DHT22;12385;51.412;5.540;2022-08-21T04:38:40;13.80;99.90
24262;DHT22;12385;51.412;5.540;2022-08-21T04:41:05;13.80;99.90
24262;DHT22;12385;51.412;5.540;2022-08-21T04:43:32;13.70;99.90
24262;DHT22;12385;51.412;5.540;2022-08-21T04:45:57;13.80;99.90
24262;DHT22;12385;51.412;5.540;2022-08-21T04:48:23;13.70;99.90
24262;DHT22;12385;51.412;5.540;2022-08-21T04:51:00;13.70;99.90
24262;DHT22;12385;51.412;5.540;2022-08-21T04:53:37;13.70;99.90
24262;DHT22;12385;51.412;5.540;2022-08-21T04:56:15;13.70;99.90
24262;DHT22;12385;51.412;5.540;2022-08-21T04:58:44;13.70;99.90
24262;DHT22;12385;51.412;5.540;2022-08-21T05:01:14;13.70;99.90
24262;DHT22;12385;51.412;5.540;2022-08-21T05:03:41;13.70;99.90
24262;DHT22;12385;51.412;5.540;2022-08-21T05:06:10;13.70;99.90
24262;DHT22;12385;51.412;5.540;2022-08-21T05:08:38;13.80;99.90
24262;DHT22;12385;51.412;5.540;2022-08-21T05:11:04;13.80;99.90
24262;DHT22;12385;51.412;5.540;2022-08-21T05:13:30;13.80;99.90
24262;DHT22;12385;51.412;5.540;2022-08-21T05:15:55;13.80;99.90
24262;DHT22;12385;51.412;5.540;2022-08-21T05:18:21;13.90;99.90
24262;DHT22;12385;51.412;5.540;2022-08-21T05:20:47;13.90;99.90
24262;DHT22;12385;51.412;5.540;2022-08-21T05:23:13;13.90;99.90
24262;DHT22;12385;51.412;5.540;2022-08-21T05:25:40;13.90;99.90
24262;DHT22;12385;51.412;5.540;2022-08-21T05:28:05;14.00;99.90
24262;DHT22;12385;51.412;5.540;2022-08-21T05:30:32;14.00;99.90
24262;DHT22;12385;51.412;5.540;2022-08-21T05:32:59;14.10;99.90
24262;DHT22;12385;51.412;5.540;2022-08-21T05:35:26;14.10;99.90
24262;DHT22;12385;51.412;5.540;2022-08-21T05:37:52;14.10;99.90
24262;DHT22;12385;51.412;5.540;2022-08-21T05:40:17;14.10;99.90
24262;DHT22;12385;51.412;5.540;2022-08-21T05:42:44;14.30;99.90
24262;DHT22;12385;51.412;5.540;2022-08-21T05:45:10;14.30;99.90
24262;DHT22;12385;51.412;5.540;2022-08-21T05:47:36;14.30;99.90
24262;DHT22;12385;51.412;5.540;2022-08-21T05:50:02;14.40;99.90
24262;DHT22;12385;51.412;5.540;2022-08-21T05:52:28;14.40;99.90
24262;DHT22;12385;51.412;5.540;2022-08-21T05:54:53;14.50;99.90
24262;DHT22;12385;51.412;5.540;2022-08-21T05:57:20;14.60;99.90
24262;DHT22;12385;51.412;5.540;2022-08-21T05:59:45;14.60;99.90
24262;DHT22;12385;51.412;5.540;2022-08-21T06:02:11;14.70;99.90
24262;DHT22;12385;51.412;5.540;2022-08-21T06:04:40;14.60;99.90
24262;DHT22;12385;51.412;5.540;2022-08-21T06:07:06;14.70;99.90
24262;DHT22;12385;51.412;5.540;2022-08-21T06:09:32;14.80;99.90
24262;DHT22;12385;51.412;5.540;2022-08-21T06:12:02;14.80;99.90
24262;DHT22;12385;51.412;5.540;2022-08-21T06:14:30;14.90;99.90
24262;DHT22;12385;51.412;5.540;2022-08-21T06:17:02;14.90;99.90
24262;DHT22;12385;51.412;5.540;2022-08-21T06:19:28;15.00;99.90
24262;DHT22;12385;51.412;5.540;2022-08-21T06:21:54;15.00;99.90
24262;DHT22;12385;51.412;5.540;2022-08-21T06:24:19;15.10;99.90
24262;DHT22;12385;51.412;5.540;2022-08-21T06:26:45;15.20;99.90
24262;DHT22;12385;51.412;5.540;2022-08-21T06:29:13;15.30;99.90
24262;DHT22;12385;51.412;5.540;2022-08-21T06:31:42;15.30;99.90
24262;DHT22;12385;51.412;5.540;2022-08-21T06:34:07;15.40;99.90
24262;DHT22;12385;51.412;5.540;2022-08-21T06:36:33;15.40;99.90
24262;DHT22;12385;51.412;5.540;2022-08-21T06:38:59;15.50;99.90
24262;DHT22;12385;51.412;5.540;2022-08-21T06:41:24;15.60;99.90
24262;DHT22;12385;51.412;5.540;2022-08-21T06:43:50;15.70;99.90
24262;DHT22;12385;51.412;5.540;2022-08-21T06:46:15;15.80;99.90
24262;DHT22;12385;51.412;5.540;2022-08-21T06:48:41;15.80;99.90
24262;DHT22;12385;51.412;5.540;2022-08-21T06:51:07;15.90;99.90
24262;DHT22;12385;51.412;5.540;2022-08-21T06:53:32;16.00;99.90
24262;DHT22;12385;51.412;5.540;2022-08-21T06:55:58;16.00;99.90
24262;DHT22;12385;51.412;5.540;2022-08-21T06:58:24;16.10;99.90
24262;DHT22;12385;51.412;5.540;2022-08-21T07:00:49;16.20;99.90
24262;DHT22;12385;51.412;5.540;2022-08-21T07:03:25;16.20;99.90
24262;DHT22;12385;51.412;5.540;2022-08-21T07:05:52;16.30;99.90
24262;DHT22;12385;51.412;5.540;2022-08-21T07:08:18;16.40;99.90
24262;DHT22;12385;51.412;5.540;2022-08-21T07:10:46;16.50;99.90
24262;DHT22;12385;51.412;5.540;2022-08-21T07:13:13;16.60;99.90
24262;DHT22;12385;51.412;5.540;2022-08-21T07:15:38;16.70;99.90
24262;DHT22;12385;51.412;5.540;2022-08-21T07:18:04;16.70;99.90
24262;DHT22;12385;51.412;5.540;2022-08-21T07:20:33;16.80;99.90
24262;DHT22;12385;51.412;5.540;2022-08-21T07:23:02;17.00;99.90
24262;DHT22;12385;51.412;5.540;2022-08-21T07:25:28;17.10;99.90
24262;DHT22;12385;51.412;5.540;2022-08-21T07:27:54;17.10;99.90
24262;DHT22;12385;51.412;5.540;2022-08-21T07:30:21;17.20;99.90
24262;DHT22;12385;51.412;5.540;2022-08-21T07:32:46;17.40;99.90
24262;DHT22;12385;51.412;5.540;2022-08-21T07:35:14;17.50;99.90
24262;DHT22;12385;51.412;5.540;2022-08-21T07:37:40;17.60;99.90
24262;DHT22;12385;51.412;5.540;2022-08-21T07:40:06;17.60;99.90
24262;DHT22;12385;51.412;5.540;2022-08-21T07:42:32;17.70;99.90
24262;DHT22;12385;51.412;5.540;2022-08-21T07:44:57;17.70;99.90
24262;DHT22;12385;51.412;5.540;2022-08-21T07:47:23;17.70;99.90
24262;DHT22;12385;51.412;5.540;2022-08-21T07:49:48;17.80;99.90
24262;DHT22;12385;51.412;5.540;2022-08-21T07:52:14;17.80;99.90
24262;DHT22;12385;51.412;5.540;2022-08-21T07:54:40;17.90;99.90
24262;DHT22;12385;51.412;5.540;2022-08-21T07:57:06;18.00;99.90
24262;DHT22;12385;51.412;5.540;2022-08-21T07:59:31;18.00;99.90
24262;DHT22;12385;51.412;5.540;2022-08-21T08:01:57;18.10;99.90
24262;DHT22;12385;51.412;5.540;2022-08-21T08:04:22;18.20;99.90
24262;DHT22;12385;51.412;5.540;2022-08-21T08:06:48;18.20;99.90
24262;DHT22;12385;51.412;5.540;2022-08-21T08:09:14;18.30;99.90
24262;DHT22;12385;51.412;5.540;2022-08-21T08:11:43;18.40;99.90
24262;DHT22;12385;51.412;5.540;2022-08-21T08:14:09;18.50;99.90
24262;DHT22;12385;51.412;5.540;2022-08-21T08:16:35;18.60;99.90
24262;DHT22;12385;51.412;5.540;2022-08-21T08:19:00;18.60;99.90
24262;DHT22;12385;51.412;5.540;2022-08-21T08:21:26;18.70;99.90
24262;DHT22;12385;51.412;5.540;2022-08-21T08:23:53;18.80;99.90
24262;DHT22;12385;51.412;5.540;2022-08-21T08:26:18;18.80;99.90
24262;DHT22;12385;51.412;5.540;2022-08-21T08:28:44;18.90;99.90
24262;DHT22;12385;51.412;5.540;2022-08-21T08:31:12;18.90;99.90
24262;DHT22;12385;51.412;5.540;2022-08-21T08:33:38;19.00;99.90
24262;DHT22;12385;51.412;5.540;2022-08-21T08:36:04;19.10;99.90
24262;DHT22;12385;51.412;5.540;2022-08-21T08:38:30;19.20;99.90
24262;DHT22;12385;51.412;5.540;2022-08-21T08:43:30;19.30;99.90
24262;DHT22;12385;51.412;5.540;2022-08-21T08:45:58;19.30;99.90
24262;DHT22;12385;51.412;5.540;2022-08-21T08:51:08;19.40;99.90
24262;DHT22;12385;51.412;5.540;2022-08-21T08:53:50;19.60;99.90
24262;DHT22;12385;51.412;5.540;2022-08-21T08:56:27;19.60;99.90
24262;DHT22;12385;51.412;5.540;2022-08-21T08:58:59;19.70;99.90
24262;DHT22;12385;51.412;5.540;2022-08-21T09:01:25;19.70;99.90
24262;DHT22;12385;51.412;5.540;2022-08-21T09:03:51;19.80;99.90
24262;DHT22;12385;51.412;5.540;2022-08-21T09:12:04;20.30;99.90
24262;DHT22;12385;51.412;5.540;2022-08-21T09:14:53;20.40;99.90
24262;DHT22;12385;51.412;5.540;2022-08-21T09:17:39;20.60;99.90
24262;DHT22;12385;51.412;5.540;2022-08-21T09:20:24;20.80;99.90
24262;DHT22;12385;51.412;5.540;2022-08-21T09:23:33;20.80;99.90
24262;DHT22;12385;51.412;5.540;2022-08-21T09:26:12;20.90;99.90
24262;DHT22;12385;51.412;5.540;2022-08-21T09:28:38;20.80;99.90
24262;DHT22;12385;51.412;5.540;2022-08-21T09:31:08;20.80;99.90
24262;DHT22;12385;51.412;5.540;2022-08-21T09:33:37;20.70;99.90
24262;DHT22;12385;51.412;5.540;2022-08-21T09:36:03;20.70;99.90
24262;DHT22;12385;51.412;5.540;2022-08-21T09:38:30;20.60;99.90
24262;DHT22;12385;51.412;5.540;2022-08-21T09:43:28;20.60;99.90
24262;DHT22;12385;51.412;5.540;2022-08-21T09:46:11;20.60;99.90
24262;DHT22;12385;51.412;5.540;2022-08-21T09:48:44;20.80;99.90
24262;DHT22;12385;51.412;5.540;2022-08-21T09:51:13;20.90;99.90
24262;DHT22;12385;51.412;5.540;2022-08-21T09:53:44;21.00;99.90
24262;DHT22;12385;51.412;5.540;2022-08-21T09:56:26;21.20;99.90
24262;DHT22;12385;51.412;5.540;2022-08-21T09:59:32;21.30;99.90
24262;DHT22;12385;51.412;5.540;2022-08-21T10:02:00;21.40;99.90
24262;DHT22;12385;51.412;5.540;2022-08-21T10:04:34;21.40;99.90
24262;DHT22;12385;51.412;5.540;2022-08-21T10:07:28;21.30;99.90
24262;DHT22;12385;51.412;5.540;2022-08-21T10:10:13;21.20;99.90
24262;DHT22;12385;51.412;5.540;2022-08-21T10:18:20;21.40;99.90
24262;DHT22;12385;51.412;5.540;2022-08-21T10:21:01;21.60;99.90
24262;DHT22;12385;51.412;5.540;2022-08-21T10:26:11;21.90;99.90
24262;DHT22;12385;51.412;5.540;2022-08-21T10:29:02;22.00;99.90
24262;DHT22;12385;51.412;5.540;2022-08-21T10:36:43;22.20;99.90
24262;DHT22;12385;51.412;5.540;2022-08-21T10:48:04;22.30;99.90
24262;DHT22;12385;51.412;5.540;2022-08-21T10:56:19;22.50;99.30
24262;DHT22;12385;51.412;5.540;2022-08-21T11:04:39;22.90;98.10
24262;DHT22;12385;51.412;5.540;2022-08-21T11:07:21;23.00;97.80
24262;DHT22;12385;51.412;5.540;2022-08-21T11:09:49;23.10;97.20
24262;DHT22;12385;51.412;5.540;2022-08-21T11:15:12;23.30;97.00
24262;DHT22;12385;51.412;5.540;2022-08-21T11:17:48;23.30;96.70
24262;DHT22;12385;51.412;5.540;2022-08-21T11:20:26;23.40;96.30
24262;DHT22;12385;51.412;5.540;2022-08-21T11:22:58;23.40;96.10
24262;DHT22;12385;51.412;5.540;2022-08-21T11:25:35;23.40;95.60
24262;DHT22;12385;51.412;5.540;2022-08-21T11:28:10;23.50;95.20
24262;DHT22;12385;51.412;5.540;2022-08-21T11:31:02;23.50;94.30
24262;DHT22;12385;51.412;5.540;2022-08-21T11:33:46;23.50;94.40
24262;DHT22;12385;51.412;5.540;2022-08-21T11:41:30;23.60;93.80
24262;DHT22;12385;51.412;5.540;2022-08-21T11:46:49;23.70;93.00
24262;DHT22;12385;51.412;5.540;2022-08-21T11:49:33;23.90;93.20
24262;DHT22;12385;51.412;5.540;2022-08-21T11:54:42;24.20;92.80
24262;DHT22;12385;51.412;5.540;2022-08-21T11:57:37;24.40;92.60
24262;DHT22;12385;51.412;5.540;2022-08-21T12:00:16;24.70;92.20
24262;DHT22;12385;51.412;5.540;2022-08-21T12:02:53;24.80;91.80
24262;DHT22;12385;51.412;5.540;2022-08-21T12:05:36;25.00;90.40
24262;DHT22;12385;51.412;5.540;2022-08-21T12:08:11;25.30;88.30
24262;DHT22;12385;51.412;5.540;2022-08-21T12:10:41;25.40;85.80
24262;DHT22;12385;51.412;5.540;2022-08-21T12:13:10;25.50;84.80
24262;DHT22;12385;51.412;5.540;2022-08-21T12:15:36;25.40;83.30
24262;DHT22;12385;51.412;5.540;2022-08-21T12:18:23;25.20;84.30
24262;DHT22;12385;51.412;5.540;2022-08-21T12:24:15;25.00;84.10
24262;DHT22;12385;51.412;5.540;2022-08-21T12:26:55;24.90;84.50
24262;DHT22;12385;51.412;5.540;2022-08-21T12:29:35;24.70;84.00
24262;DHT22;12385;51.412;5.540;2022-08-21T12:37:46;24.50;84.60
24262;DHT22;12385;51.412;5.540;2022-08-21T12:40:33;24.60;84.30
24262;DHT22;12385;51.412;5.540;2022-08-21T12:43:02;24.80;83.70
24262;DHT22;12385;51.412;5.540;2022-08-21T12:45:48;25.10;84.30
24262;DHT22;12385;51.412;5.540;2022-08-21T12:48:29;25.30;84.10
24262;DHT22;12385;51.412;5.540;2022-08-21T12:51:38;25.30;82.50
24262;DHT22;12385;51.412;5.540;2022-08-21T12:54:02;25.20;81.90
24262;DHT22;12385;51.412;5.540;2022-08-21T12:56:31;25.30;83.00
24262;DHT22;12385;51.412;5.540;2022-08-21T12:59:04;25.70;81.10
24262;DHT22;12385;51.412;5.540;2022-08-21T13:01:36;26.20;79.20
24262;DHT22;12385;51.412;5.540;2022-08-21T13:04:10;26.70;74.90
24262;DHT22;12385;51.412;5.540;2022-08-21T13:06:40;27.30;73.30
24262;DHT22;12385;51.412;5.540;2022-08-21T13:09:10;27.70;68.90
24262;DHT22;12385;51.412;5.540;2022-08-21T13:11:37;28.20;65.90
24262;DHT22;12385;51.412;5.540;2022-08-21T13:14:04;28.60;64.00
24262;DHT22;12385;51.412;5.540;2022-08-21T13:16:30;28.80;60.70
24262;DHT22;12385;51.412;5.540;2022-08-21T13:19:02;28.80;59.50
24262;DHT22;12385;51.412;5.540;2022-08-21T13:21:34;28.60;59.10
24262;DHT22;12385;51.412;5.540;2022-08-21T13:24:31;28.20;58.40
24262;DHT22;12385;51.412;5.540;2022-08-21T13:26:57;27.90;59.80
24262;DHT22;12385;51.412;5.540;2022-08-21T13:29:32;27.90;60.10
24262;DHT22;12385;51.412;5.540;2022-08-21T13:32:02;28.40;60.50
24262;DHT22;12385;51.412;5.540;2022-08-21T13:34:34;28.70;60.00
24262;DHT22;12385;51.412;5.540;2022-08-21T13:37:04;28.90;59.20
24262;DHT22;12385;51.412;5.540;2022-08-21T13:39:30;28.70;59.20
24262;DHT22;12385;51.412;5.540;2022-08-21T13:42:00;28.40;59.10
24262;DHT22;12385;51.412;5.540;2022-08-21T13:44:40;28.10;60.70
24262;DHT22;12385;51.412;5.540;2022-08-21T13:47:07;27.80;60.50
24262;DHT22;12385;51.412;5.540;2022-08-21T13:49:37;27.50;61.50
24262;DHT22;12385;51.412;5.540;2022-08-21T13:52:04;27.20;60.80
24262;DHT22;12385;51.412;5.540;2022-08-21T13:54:40;26.90;60.50
24262;DHT22;12385;51.412;5.540;2022-08-21T13:57:24;27.00;62.20
24262;DHT22;12385;51.412;5.540;2022-08-21T13:59:51;27.70;60.80
24262;DHT22;12385;51.412;5.540;2022-08-21T14:02:20;28.50;59.40
24262;DHT22;12385;51.412;5.540;2022-08-21T14:04:56;29.20;57.80
24262;DHT22;12385;51.412;5.540;2022-08-21T14:07:56;29.50;55.40
24262;DHT22;12385;51.412;5.540;2022-08-21T14:10:26;29.90;54.10
24262;DHT22;12385;51.412;5.540;2022-08-21T14:13:02;30.20;54.40
24262;DHT22;12385;51.412;5.540;2022-08-21T14:15:31;30.20;53.20
24262;DHT22;12385;51.412;5.540;2022-08-21T14:18:17;30.10;53.50
24262;DHT22;12385;51.412;5.540;2022-08-21T14:20:43;30.10;53.30
24262;DHT22;12385;51.412;5.540;2022-08-21T14:23:10;30.10;53.50
24262;DHT22;12385;51.412;5.540;2022-08-21T14:25:42;30.20;53.40
24262;DHT22;12385;51.412;5.540;2022-08-21T14:28:37;30.30;53.00
24262;DHT22;12385;51.412;5.540;2022-08-21T14:31:18;30.50;51.00
24262;DHT22;12385;51.412;5.540;2022-08-21T14:33:44;30.80;50.30
24262;DHT22;12385;51.412;5.540;2022-08-21T14:36:10;31.10;49.80
24262;DHT22;12385;51.412;5.540;2022-08-21T14:38:38;31.40;48.30
24262;DHT22;12385;51.412;5.540;2022-08-21T14:41:17;31.50;47.30
24262;DHT22;12385;51.412;5.540;2022-08-21T14:43:44;31.50;46.40
24262;DHT22;12385;51.412;5.540;2022-08-21T14:46:13;31.40;47.50
24262;DHT22;12385;51.412;5.540;2022-08-21T14:48:41;31.20;47.60
24262;DHT22;12385;51.412;5.540;2022-08-21T14:51:08;31.10;47.50
24262;DHT22;12385;51.412;5.540;2022-08-21T14:53:33;30.80;47.30
24262;DHT22;12385;51.412;5.540;2022-08-21T14:55:59;30.40;47.50
24262;DHT22;12385;51.412;5.540;2022-08-21T14:58:37;30.00;48.40
24262;DHT22;12385;51.412;5.540;2022-08-21T15:01:05;29.70;49.80
24262;DHT22;12385;51.412;5.540;2022-08-21T15:03:31;29.50;50.50
24262;DHT22;12385;51.412;5.540;2022-08-21T15:05:58;29.20;51.00
24262;DHT22;12385;51.412;5.540;2022-08-21T15:08:23;29.00;51.00
24262;DHT22;12385;51.412;5.540;2022-08-21T15:10:50;28.90;51.60
24262;DHT22;12385;51.412;5.540;2022-08-21T15:13:16;28.90;53.50
24262;DHT22;12385;51.412;5.540;2022-08-21T15:15:45;28.90;52.70
24262;DHT22;12385;51.412;5.540;2022-08-21T15:18:12;28.90;52.60
24262;DHT22;12385;51.412;5.540;2022-08-21T15:20:38;28.90;52.50
24262;DHT22;12385;51.412;5.540;2022-08-21T15:23:05;28.80;52.40
24262;DHT22;12385;51.412;5.540;2022-08-21T15:25:32;28.70;52.40
24262;DHT22;12385;51.412;5.540;2022-08-21T15:27:58;28.80;52.40
24262;DHT22;12385;51.412;5.540;2022-08-21T15:30:25;28.80;51.90
24262;DHT22;12385;51.412;5.540;2022-08-21T15:32:50;28.70;51.60
24262;DHT22;12385;51.412;5.540;2022-08-21T15:35:17;28.60;52.20
24262;DHT22;12385;51.412;5.540;2022-08-21T15:37:43;28.60;53.60
24262;DHT22;12385;51.412;5.540;2022-08-21T15:40:10;28.60;52.50
24262;DHT22;12385;51.412;5.540;2022-08-21T15:42:38;28.40;52.70
24262;DHT22;12385;51.412;5.540;2022-08-21T15:45:04;28.20;53.50
24262;DHT22;12385;51.412;5.540;2022-08-21T15:47:32;28.10;54.00
24262;DHT22;12385;51.412;5.540;2022-08-21T15:50:01;27.90;54.20
24262;DHT22;12385;51.412;5.540;2022-08-21T15:52:27;27.80;54.80
24262;DHT22;12385;51.412;5.540;2022-08-21T15:54:53;27.80;55.60
24262;DHT22;12385;51.412;5.540;2022-08-21T15:57:21;27.60;56.10
24262;DHT22;12385;51.412;5.540;2022-08-21T15:59:50;27.60;57.20
24262;DHT22;12385;51.412;5.540;2022-08-21T16:02:23;27.50;57.30
24262;DHT22;12385;51.412;5.540;2022-08-21T16:04:50;27.40;57.90
24262;DHT22;12385;51.412;5.540;2022-08-21T16:07:16;27.30;57.70
24262;DHT22;12385;51.412;5.540;2022-08-21T16:09:42;27.30;58.30
24262;DHT22;12385;51.412;5.540;2022-08-21T16:12:10;27.30;58.80
24262;DHT22;12385;51.412;5.540;2022-08-21T16:14:37;27.50;58.10
24262;DHT22;12385;51.412;5.540;2022-08-21T16:17:05;27.70;57.20
24262;DHT22;12385;51.412;5.540;2022-08-21T16:19:31;27.90;57.10
24262;DHT22;12385;51.412;5.540;2022-08-21T16:21:56;28.10;57.10
24262;DHT22;12385;51.412;5.540;2022-08-21T16:24:22;28.10;56.10
24262;DHT22;12385;51.412;5.540;2022-08-21T16:26:48;28.10;56.10
24262;DHT22;12385;51.412;5.540;2022-08-21T16:29:15;28.10;56.10
24262;DHT22;12385;51.412;5.540;2022-08-21T16:31:40;28.10;56.30
24262;DHT22;12385;51.412;5.540;2022-08-21T16:34:06;28.20;57.00
24262;DHT22;12385;51.412;5.540;2022-08-21T16:36:32;28.20;56.00
24262;DHT22;12385;51.412;5.540;2022-08-21T16:38:59;28.10;56.30
24262;DHT22;12385;51.412;5.540;2022-08-21T16:41:29;28.00;56.20
24262;DHT22;12385;51.412;5.540;2022-08-21T16:43:55;27.80;56.90
24262;DHT22;12385;51.412;5.540;2022-08-21T16:46:21;27.70;56.80
24262;DHT22;12385;51.412;5.540;2022-08-21T16:48:47;27.50;57.40
24262;DHT22;12385;51.412;5.540;2022-08-21T16:51:14;27.30;57.20
24262;DHT22;12385;51.412;5.540;2022-08-21T16:53:41;27.10;57.40